createdAt,value
2018-11-22T12:18:01.153Z,3.80
2018-11-22T12:20:29.322Z,3.80
2018-11-22T12:22:57.789Z,3.80
2018-11-22T12:25:26.714Z,3.80
2018-11-22T12:27:57.875Z,3.70
2018-11-22T12:30:30.026Z,3.80
2018-11-22T12:34:02.301Z,3.70
2018-11-22T12:36:36.032Z,3.80
2018-11-22T12:39:10.116Z,3.80
2018-11-22T12:41:38.166Z,3.90
2018-11-22T12:44:06.357Z,3.80
2018-11-22T12:46:34.497Z,3.80
2018-11-22T12:49:02.484Z,3.80
2018-11-22T12:51:42.187Z,3.80
2018-11-22T12:54:10.033Z,3.90
2018-11-22T12:56:38.562Z,3.90
2018-11-22T12:59:06.425Z,3.90
2018-11-22T13:01:40.685Z,4.10
2018-11-22T13:04:08.410Z,4.10
2018-11-22T13:06:36.684Z,4.10
2018-11-22T13:09:07.455Z,4.10
2018-11-22T13:11:35.445Z,4.00
2018-11-22T13:14:04.012Z,4.00
2018-11-22T13:16:32.195Z,4.00
2018-11-22T13:19:00.067Z,4.00
2018-11-22T13:21:28.018Z,3.90
2018-11-22T13:24:06.533Z,3.90
2018-11-22T13:26:34.519Z,3.90
2018-11-22T13:29:02.447Z,3.90
2018-11-22T13:31:30.344Z,4.00
2018-11-22T13:33:58.337Z,4.10
2018-11-22T13:36:26.387Z,4.00
2018-11-22T13:38:54.328Z,3.90
2018-11-22T13:41:22.124Z,3.90
2018-11-22T13:43:50.065Z,4.00
2018-11-22T13:46:18.007Z,4.00
2018-11-22T13:48:46.167Z,4.00
2018-11-22T13:51:14.059Z,3.90
2018-11-22T13:53:42.047Z,4.00
2018-11-22T13:56:10.087Z,3.80
2018-11-22T13:58:38.194Z,3.90
2018-11-22T14:01:06.233Z,3.90
2018-11-22T14:03:34.388Z,3.90
2018-11-22T14:06:02.329Z,3.80
2018-11-22T14:08:30.153Z,3.80
2018-11-22T14:10:58.596Z,3.70
2018-11-22T14:13:26.150Z,3.70
2018-11-22T14:15:53.999Z,3.70
2018-11-22T14:18:30.273Z,3.70
2018-11-22T14:20:58.135Z,3.70
2018-11-22T14:23:26.023Z,3.70
2018-11-22T14:25:53.860Z,3.70
2018-11-22T14:28:21.812Z,3.80
2018-11-22T14:30:49.870Z,3.80
2018-11-22T14:33:18.123Z,3.80
2018-11-22T14:35:46.171Z,3.90
2018-11-22T14:38:14.364Z,3.90
2018-11-22T14:40:42.376Z,3.90
2018-11-22T14:43:10.294Z,3.90
2018-11-22T14:45:38.303Z,3.80
2018-11-22T14:48:06.736Z,3.90
2018-11-22T14:50:37.886Z,3.90
2018-11-22T14:53:11.677Z,3.90
2018-11-22T14:55:39.837Z,4.00
2018-11-22T14:58:08.402Z,4.00
2018-11-22T15:00:36.395Z,4.00
2018-11-22T15:03:04.504Z,4.00
2018-11-22T15:05:32.323Z,4.10
2018-11-22T15:08:00.192Z,4.10
2018-11-22T15:10:28.001Z,4.10
2018-11-22T15:12:55.967Z,4.10
2018-11-22T15:15:25.099Z,4.10
2018-11-22T15:17:53.009Z,4.10
2018-11-22T15:20:22.042Z,4.10
2018-11-22T15:22:51.034Z,4.10
2018-11-22T15:25:23.410Z,4.10
2018-11-22T15:27:51.352Z,4.20
2018-11-22T15:30:23.526Z,4.20
2018-11-22T15:32:51.407Z,4.10
2018-11-22T15:35:20.810Z,4.10
2018-11-22T15:37:49.040Z,4.20
2018-11-22T15:40:18.154Z,4.20
2018-11-22T15:42:47.210Z,4.20
2018-11-22T15:45:17.456Z,4.20
2018-11-22T15:47:45.759Z,4.20
2018-11-22T15:50:14.896Z,4.10
2018-11-22T15:52:43.132Z,4.10
2018-11-22T15:58:07.898Z,4.10
2018-11-22T16:00:36.093Z,4.10
2018-11-22T16:03:04.123Z,4.10
2018-11-22T16:05:32.473Z,4.10
2018-11-22T16:08:00.360Z,4.10
2018-11-22T16:10:30.807Z,4.10
2018-11-22T16:13:00.387Z,4.10
2018-11-22T16:15:32.122Z,4.10
2018-11-22T16:17:59.988Z,4.10
2018-11-22T16:20:27.850Z,4.20
2018-11-22T16:22:55.675Z,4.10
2018-11-22T16:25:23.660Z,4.10
2018-11-22T16:27:51.626Z,4.10
2018-11-22T16:30:23.659Z,4.10
2018-11-22T16:32:51.835Z,4.10
2018-11-22T16:35:20.566Z,4.10
2018-11-22T16:37:48.389Z,4.00
2018-11-22T16:40:17.748Z,4.00
2018-11-22T16:42:46.834Z,4.10
2018-11-22T16:45:20.746Z,4.10
2018-11-22T16:47:48.683Z,4.10
2018-11-22T16:50:18.027Z,4.00
2018-11-22T16:52:46.096Z,4.00
2018-11-22T16:55:14.458Z,4.00
2018-11-22T16:57:43.544Z,4.00
2018-11-22T17:00:30.602Z,4.00
2018-11-22T17:03:00.838Z,4.10
2018-11-22T17:05:29.026Z,4.00
2018-11-22T17:08:06.904Z,4.00
2018-11-22T17:10:35.413Z,4.00
2018-11-22T17:13:04.055Z,4.00
2018-11-22T17:15:33.373Z,4.00
2018-11-22T17:18:01.666Z,4.10
2018-11-22T17:20:36.071Z,4.10
2018-11-22T17:23:04.648Z,4.10
2018-11-22T17:25:38.495Z,4.10
2018-11-22T17:28:08.157Z,4.00
2018-11-22T17:30:40.477Z,4.10
2018-11-22T17:33:08.954Z,4.10
2018-11-22T17:35:37.171Z,4.20
2018-11-22T17:38:06.802Z,4.20
2018-11-22T17:40:36.395Z,4.10
2018-11-22T17:43:09.647Z,4.10
2018-11-22T17:45:38.970Z,4.10
2018-11-22T17:48:07.354Z,4.10
2018-11-22T17:50:37.488Z,4.10
2018-11-22T17:53:08.166Z,4.10
2018-11-22T17:55:48.384Z,4.10
2018-11-22T17:58:16.516Z,4.10
2018-11-22T18:00:55.367Z,4.10
2018-11-22T18:03:23.186Z,4.10
2018-11-22T18:05:51.674Z,4.10
2018-11-22T18:08:23.018Z,4.10
2018-11-22T18:10:55.656Z,4.10
2018-11-22T18:13:23.486Z,4.10
2018-11-22T18:15:55.821Z,4.10
2018-11-22T18:18:24.032Z,4.10
2018-11-22T18:20:52.043Z,4.10
2018-11-22T18:23:19.914Z,4.10
2018-11-22T18:25:49.092Z,4.10
2018-11-22T18:28:16.053Z,4.10
2018-11-22T18:30:43.884Z,4.10
2018-11-22T18:33:12.685Z,4.10
2018-11-22T18:35:40.563Z,4.10
2018-11-22T18:38:08.746Z,4.10
2018-11-22T18:40:41.221Z,4.10
2018-11-22T18:43:10.323Z,4.00
2018-11-22T18:45:39.737Z,4.10
2018-11-22T18:48:11.250Z,4.10
2018-11-22T18:50:39.854Z,4.00
2018-11-22T18:53:10.001Z,4.00
2018-11-22T18:55:49.515Z,4.10
2018-11-22T18:58:25.210Z,4.10
2018-11-22T19:01:03.754Z,4.10
2018-11-22T19:03:31.625Z,4.10
2018-11-22T19:05:59.574Z,4.10
2018-11-22T19:08:34.394Z,4.10
2018-11-22T19:11:02.195Z,4.10
2018-11-22T19:13:29.967Z,4.10
2018-11-22T19:15:58.018Z,4.00
2018-11-22T19:18:29.492Z,4.00
2018-11-22T19:20:57.358Z,4.00
2018-11-22T19:23:25.142Z,4.00
2018-11-22T19:25:54.191Z,4.00
2018-11-22T19:28:22.367Z,4.00
2018-11-22T19:30:50.534Z,4.00
2018-11-22T19:33:19.376Z,4.00
2018-11-22T19:35:49.217Z,4.00
2018-11-22T19:41:12.706Z,4.00
2018-11-22T19:43:40.617Z,4.00
2018-11-22T19:46:08.538Z,4.10
2018-11-22T19:48:36.412Z,4.10
2018-11-22T19:51:05.780Z,4.10
2018-11-22T19:53:33.436Z,4.00
2018-11-22T19:56:01.179Z,4.00
2018-11-22T19:58:29.093Z,4.00
2018-11-22T20:00:57.001Z,4.00
2018-11-22T20:03:26.908Z,4.00
2018-11-22T20:05:54.850Z,4.10
2018-11-22T20:08:22.738Z,4.00
2018-11-22T20:10:50.842Z,4.00
2018-11-22T20:13:19.695Z,4.10
2018-11-22T20:15:47.675Z,4.10
2018-11-22T20:18:15.540Z,4.00
2018-11-22T20:20:49.584Z,4.10
2018-11-22T20:23:12.824Z,4.10
2018-11-22T20:25:44.141Z,4.00
2018-11-22T20:28:11.925Z,4.00
2018-11-22T20:30:41.411Z,3.90
2018-11-22T20:33:10.344Z,4.00
2018-11-22T20:35:38.240Z,4.00
2018-11-22T20:38:06.309Z,4.00
2018-11-22T20:40:38.592Z,4.00
2018-11-22T20:43:06.553Z,4.00
2018-11-22T20:45:40.774Z,4.10
2018-11-22T20:48:05.117Z,4.00
2018-11-22T20:50:33.452Z,4.00
2018-11-22T20:53:01.422Z,4.00
2018-11-22T20:55:32.019Z,4.00
2018-11-22T20:58:06.132Z,4.00
2018-11-22T21:13:48.566Z,4.00
2018-11-22T21:16:16.285Z,4.00
2018-11-22T21:18:44.159Z,4.00
2018-11-22T21:21:11.706Z,4.00
2018-11-22T21:23:39.337Z,4.00
2018-11-22T21:26:14.190Z,4.00
2018-11-22T21:28:34.766Z,3.90
2018-11-22T21:31:02.376Z,3.90
2018-11-22T21:33:29.901Z,3.90
2018-11-22T21:35:57.386Z,4.00
2018-11-22T21:38:24.980Z,4.00
2018-11-22T21:40:52.752Z,4.00
2018-11-22T21:43:20.441Z,4.00
2018-11-22T21:45:48.130Z,4.00
2018-11-22T21:48:15.727Z,3.90
2018-11-22T21:50:43.291Z,3.90
2018-11-22T21:53:10.876Z,3.80
2018-11-22T21:55:38.536Z,3.80
2018-11-22T21:58:06.289Z,3.80
2018-11-22T22:00:36.291Z,3.80
2018-11-22T22:03:05.702Z,3.80
2018-11-22T22:05:33.414Z,3.80
2018-11-22T22:08:00.971Z,3.80
2018-11-22T22:10:28.709Z,3.70
2018-11-22T22:12:56.248Z,3.80
2018-11-22T22:15:25.554Z,3.70
2018-11-22T22:17:53.149Z,3.70
2018-11-22T22:20:22.364Z,3.70
2018-11-22T22:22:50.159Z,3.70
2018-11-22T22:25:19.017Z,3.70
2018-11-22T22:27:47.310Z,3.70
2018-11-22T22:30:16.379Z,3.70
2018-11-22T22:32:44.773Z,3.60
2018-11-22T22:35:12.532Z,3.70
2018-11-22T22:37:40.524Z,3.70
2018-11-22T22:40:11.805Z,3.70
2018-11-22T22:42:40.641Z,3.70
2018-11-22T22:45:08.396Z,3.70
2018-11-22T22:47:36.138Z,3.70
2018-11-22T22:50:04.761Z,3.70
2018-11-22T22:52:32.305Z,3.60
2018-11-22T22:54:59.973Z,3.70
2018-11-22T22:57:27.545Z,3.80
2018-11-22T22:59:55.233Z,3.80
2018-11-22T23:02:23.055Z,3.80
2018-11-22T23:04:50.638Z,3.80
2018-11-22T23:07:18.283Z,3.70
2018-11-22T23:09:45.970Z,3.70
2018-11-22T23:12:17.185Z,3.70
2018-11-22T23:14:45.187Z,3.70
2018-11-22T23:17:13.126Z,3.70
2018-11-22T23:19:41.136Z,3.70
2018-11-22T23:22:08.919Z,3.60
2018-11-22T23:24:36.741Z,3.60
2018-11-22T23:27:05.142Z,3.60
2018-11-22T23:29:32.987Z,3.60
2018-11-22T23:32:00.967Z,3.60
2018-11-22T23:34:28.951Z,3.60
2018-11-22T23:36:56.916Z,3.50
2018-11-22T23:39:24.914Z,3.60
2018-11-22T23:41:53.196Z,3.50
2018-11-22T23:44:21.128Z,3.60
2018-11-22T23:46:48.972Z,3.60
2018-11-22T23:49:16.831Z,3.60
2018-11-22T23:51:44.879Z,3.60
2018-11-22T23:54:12.836Z,3.60
2018-11-22T23:56:40.821Z,3.50
2018-11-22T23:59:08.752Z,3.60
